Main page
METAR-TAF:

METAR-TAF

Airports :

Tangier Ibn Battouta Airport

Tangier, Morocco

latitude: 35-44N, longitude: 005-54W, elevation: 19 m

Current weather observation

The report was made 36 minutes ago, at 18:00 UTC
Wind 2 kt from variable directions
Temperature 13°C
Humidity 82%
Pressure 1026 hPa
Visibility 10 km or more
Few clouds at a height of 1600 ft

METAR: GMTT 271800Z VRB02KT 9999 FEW016 13/10 Q1026 NOSIG

Time: 19:36 (18:36 UTC)

Forecast

The report was made 1 hour and 36 minutes ago, at 17:00 UTC
Forecast valid from 27 at 18 UTC to 28 at 24 UTC
Wind 5 kt from the Northwest
Visibility 10 km or more
Few clouds at a height of 1600 ft
Probability 40% :
Temporary
from 27 at 23 UTC to 28 at 08 UTC
Visibility: 4000 m
mist

TAF: GMTT 271700Z 2718/2824 31005KT 9999 FEW016 PROB40 TEMPO 2723/2808 4000 BR

Weather observations and forecasts of more than 4000 airports (METAR and TAF reports).

The available stations are represented by yellow and red dots on the map.

Hover mouse over dot to see the name of the station.

Then click to see weather observations and forecasts.

To change the map : click on the green buttons with a black cross to zoom in, on the green button with a dash to zoom out, or on the green arrows for adjacent maps.


METAR-TAF: